Time;durP1;ratioP1;P1;durP2;ratioP2;P2;SDS_P1;SDS_P2;PMS_P1;PMS_P2;Temp;Humidity;BMP_temperature;BMP_pressure;BME280_temperature;BME280_humidity;BME280_pressure;Samples;Min_cycle;Max_cycle;Signal;HPM_P1;HPM_P2
2023/02/03 00:01:41;;;;;;;7.72;4.05;;;-0.50;99.90;;;;;;5052295;28;20520;-77
2023/02/03 00:04:06;;;;;;;5.07;3.45;;;-0.50;99.90;;;;;;5053362;28;20049;-77
2023/02/03 00:06:32;;;;;;;7.07;4.32;;;-0.50;99.90;;;;;;5053417;28;20410;-77
2023/02/03 00:09:00;;;;;;;6.03;4.20;;;-0.50;99.90;;;;;;5053545;28;20071;-77
2023/02/03 00:11:28;;;;;;;5.40;4.43;;;-0.50;99.90;;;;;;5052071;28;20023;-77
2023/02/03 00:13:53;;;;;;;4.82;4.13;;;-0.50;99.90;;;;;;5053362;28;20017;-77
2023/02/03 00:16:19;;;;;;;7.53;5.18;;;-0.50;99.90;;;;;;5053402;28;20500;-77
2023/02/03 00:18:44;;;;;;;7.50;4.47;;;-0.50;99.90;;;;;;5053428;28;20112;-77
2023/02/03 00:21:10;;;;;;;6.72;5.07;;;-0.50;99.90;;;;;;5051903;28;20115;-77
2023/02/03 00:23:35;;;;;;;6.90;4.53;;;-0.50;99.90;;;;;;5052137;28;20018;-77
2023/02/03 00:26:13;;;;;;;7.13;5.07;;;-0.50;99.90;;;;;;5067274;28;20054;-77
2023/02/03 00:28:39;;;;;;;8.57;6.63;;;-0.50;99.90;;;;;;5071933;28;20032;-77
2023/02/03 00:31:04;;;;;;;7.47;5.13;;;-0.50;99.90;;;;;;5071650;28;20032;-78
2023/02/03 00:33:32;;;;;;;15.40;7.82;;;-0.50;99.90;;;;;;5072084;28;20031;-77
2023/02/03 00:36:03;;;;;;;10.40;6.47;;;-0.50;99.90;;;;;;5072931;28;20154;-76
2023/02/03 00:38:28;;;;;;;13.02;6.03;;;-0.50;99.90;;;;;;5073202;28;20056;-77
2023/02/03 00:40:54;;;;;;;12.82;7.15;;;-0.50;99.90;;;;;;5072948;28;20126;-77
2023/02/03 00:43:20;;;;;;;8.73;6.50;;;-0.50;99.90;;;;;;5074706;28;20093;-77
2023/02/03 00:45:46;;;;;;;8.05;6.05;;;-0.60;99.90;;;;;;5076995;28;20024;-76
2023/02/03 00:48:12;;;;;;;9.82;7.60;;;-0.60;99.90;;;;;;5077087;28;20500;-77
2023/02/03 00:50:38;;;;;;;8.82;6.30;;;-0.60;99.90;;;;;;5076872;28;20062;-77
2023/02/03 00:53:04;;;;;;;7.93;5.35;;;-0.60;99.90;;;;;;5077071;28;20033;-78
2023/02/03 00:55:29;;;;;;;8.70;5.95;;;-0.60;99.90;;;;;;5076777;28;20494;-77
2023/02/03 00:57:55;;;;;;;12.18;7.15;;;-0.60;99.90;;;;;;5075706;28;20048;-77
2023/02/03 01:00:21;;;;;;;11.25;7.00;;;-0.60;99.90;;;;;;5076715;28;20016;-77
2023/02/03 01:02:46;;;;;;;7.25;5.30;;;-0.60;99.90;;;;;;5075691;28;20443;-77
2023/02/03 01:05:12;;;;;;;9.93;6.00;;;-0.60;99.90;;;;;;5075302;28;20473;-76
2023/02/03 01:07:38;;;;;;;8.57;4.93;;;-0.60;99.90;;;;;;5075473;28;20473;-76
2023/02/03 01:10:04;;;;;;;11.50;6.05;;;-0.70;99.90;;;;;;5076511;28;20025;-77
2023/02/03 01:12:31;;;;;;;9.45;5.78;;;-0.70;99.90;;;;;;5076775;28;20056;-77
2023/02/03 01:14:57;;;;;;;44.55;15.52;;;-0.60;99.90;;;;;;5075123;28;20016;-76
2023/02/03 01:17:23;;;;;;;10.02;6.47;;;-0.60;99.90;;;;;;5075315;28;20028;-78
2023/02/03 01:19:50;;;;;;;8.43;5.03;;;-0.70;99.90;;;;;;5076307;28;20099;-77
2023/02/03 01:22:16;;;;;;;8.02;4.50;;;-0.70;99.90;;;;;;5076444;28;20028;-77
2023/02/03 01:24:41;;;;;;;4.60;3.85;;;-0.70;99.90;;;;;;5074926;28;20421;-76
2023/02/03 01:27:07;;;;;;;60.10;26.27;;;-0.70;99.90;;;;;;5074804;28;20076;-77
2023/02/03 01:29:33;;;;;;;16.65;7.72;;;-0.70;99.90;;;;;;5076262;28;20032;-77
2023/02/03 01:31:58;;;;;;;77.53;21.33;;;-0.70;99.90;;;;;;5076318;28;20107;-77
2023/02/03 01:34:24;;;;;;;21.90;9.13;;;-0.70;99.90;;;;;;5074971;28;20103;-77
2023/02/03 01:36:50;;;;;;;7.60;3.83;;;-0.70;99.90;;;;;;5075964;28;20033;-77
2023/02/03 01:39:16;;;;;;;5.43;4.30;;;-0.70;99.90;;;;;;5075028;28;20025;-77
2023/02/03 01:41:42;;;;;;;19.25;7.88;;;-0.70;99.90;;;;;;5075832;28;20021;-78
2023/02/03 01:44:41;;;;;;;44.55;20.33;;;-0.70;99.90;;;;;;5076143;28;20082;-77
2023/02/03 01:47:15;;;;;;;21.52;8.20;;;-0.80;99.90;;;;;;5074649;28;20071;-77
2023/02/03 01:49:46;;;;;;;9.73;3.80;;;-0.80;99.90;;;;;;5076195;28;20022;-77
2023/02/03 01:52:12;;;;;;;7.43;3.53;;;-0.70;99.90;;;;;;5076145;28;20116;-77
2023/02/03 01:54:41;;;;;;;9.55;5.53;;;-0.80;99.90;;;;;;5075203;28;20105;-77
2023/02/03 01:57:15;;;;;;;16.02;7.22;;;-0.80;99.90;;;;;;5074467;28;20111;-77
2023/02/03 01:59:43;;;;;;;32.78;16.67;;;-0.80;99.90;;;;;;5075906;28;20025;-78
2023/02/03 02:02:10;;;;;;;34.35;12.82;;;-0.80;99.90;;;;;;5057263;28;20036;-77
2023/02/03 02:05:01;;;;;;;17.23;6.40;;;-0.80;99.90;;;;;;5055694;28;20017;-77
2023/02/03 02:07:27;;;;;;;18.60;7.30;;;-0.80;99.90;;;;;;5054252;28;20060;-77
2023/02/03 02:09:55;;;;;;;17.55;8.75;;;-0.80;99.90;;;;;;5054332;28;20395;-76
2023/02/03 02:12:21;;;;;;;13.88;6.95;;;-0.80;99.90;;;;;;5055673;28;20031;-78
2023/02/03 02:14:47;;;;;;;20.50;12.27;;;-0.80;99.90;;;;;;5055695;28;20096;-77
2023/02/03 02:18:01;;;;;;;45.17;20.52;;;-0.80;99.90;;;;;;5055445;28;20049;-77
2023/02/03 02:21:16;;;;;;;10.15;5.82;;;-0.90;99.90;;;;;;5046766;28;20037;-77
2023/02/03 02:23:57;;;;;;;14.57;7.25;;;-0.90;99.90;;;;;;5045827;28;20041;-77
2023/02/03 02:26:44;;;;;;;10.25;6.50;;;-0.90;99.90;;;;;;5067195;28;20547;-77
2023/02/03 02:29:38;;;;;;;10.25;6.38;;;-1.00;99.90;;;;;;5075274;28;20020;-77
2023/02/03 02:32:17;;;;;;;7.68;4.28;;;-1.00;99.90;;;;;;5074981;28;20115;-77
2023/02/03 02:35:17;;;;;;;42.67;20.15;;;-1.10;99.90;;;;;;5075299;28;20020;-77
2023/02/03 02:38:09;;;;;;;19.00;7.35;;;-1.10;99.90;;;;;;5034012;28;20053;-77
2023/02/03 02:40:57;;;;;;;7.28;4.75;;;-1.10;99.90;;;;;;5039980;28;20031;-77
2023/02/03 02:43:33;;;;;;;10.35;5.22;;;-1.10;99.90;;;;;;5051415;28;20040;-77
2023/02/03 02:46:07;;;;;;;8.23;4.32;;;-1.10;99.90;;;;;;5055053;28;20056;-76
2023/02/03 02:48:46;;;;;;;8.73;4.18;;;-1.10;99.90;;;;;;5053745;28;20041;-76
2023/02/03 02:51:14;;;;;;;7.35;5.75;;;-1.10;99.90;;;;;;5054855;28;20091;-77
2023/02/03 02:53:49;;;;;;;14.70;7.93;;;-1.20;99.90;;;;;;5053771;28;20040;-77
2023/02/03 02:56:16;;;;;;;7.13;4.05;;;-1.20;99.90;;;;;;5053523;28;20057;-76
2023/02/03 02:58:46;;;;;;;5.13;3.90;;;-1.30;99.90;;;;;;5054715;28;20497;-77
2023/02/03 03:01:12;;;;;;;6.18;4.03;;;-1.30;99.90;;;;;;5053443;28;20391;-77
2023/02/03 03:03:41;;;;;;;8.07;4.93;;;-1.30;99.90;;;;;;5054793;28;20021;-77
2023/02/03 03:06:42;;;;;;;7.45;4.07;;;-1.30;99.90;;;;;;5053741;28;20031;-77
2023/02/03 03:09:14;;;;;;;5.60;3.97;;;-1.30;99.90;;;;;;5054570;28;20478;-77
2023/02/03 03:11:54;;;;;;;5.30;4.03;;;-1.40;99.90;;;;;;5053227;28;20112;-76
2023/02/03 03:14:24;;;;;;;6.72;3.92;;;-1.40;99.90;;;;;;5053114;28;20025;-77
2023/02/03 03:16:55;;;;;;;9.48;4.00;;;-1.50;99.90;;;;;;5054424;28;20035;-76
2023/02/03 03:19:25;;;;;;;5.70;3.08;;;-1.50;99.90;;;;;;5053131;28;20021;-77
2023/02/03 03:21:56;;;;;;;5.72;3.70;;;-1.50;99.90;;;;;;5054364;28;20083;-77
2023/02/03 03:24:29;;;;;;;4.65;3.63;;;-1.50;99.90;;;;;;5053013;28;20025;-77
2023/02/03 03:27:09;;;;;;;17.73;9.57;;;-1.50;99.90;;;;;;5052586;28;20041;-77
2023/02/03 03:29:43;;;;;;;6.82;3.92;;;-1.50;99.90;;;;;;5052827;28;20446;-77
2023/02/03 03:32:09;;;;;;;7.28;3.80;;;-1.50;99.90;;;;;;5052669;28;20025;-77
2023/02/03 03:34:35;;;;;;;8.40;4.20;;;-1.60;99.90;;;;;;5052803;28;20033;-77
2023/02/03 03:37:00;;;;;;;7.38;3.97;;;-1.60;99.90;;;;;;5052722;28;20032;-76
2023/02/03 03:39:42;;;;;;;3.85;3.55;;;-1.60;99.90;;;;;;5052650;28;20094;-78
2023/02/03 03:42:26;;;;;;;12.23;8.35;;;-1.60;99.90;;;;;;5052715;28;20051;-77
2023/02/03 03:45:30;;;;;;;22.85;12.85;;;-1.70;99.90;;;;;;5052563;28;20025;-77
2023/02/03 03:48:06;;;;;;;10.70;5.47;;;-1.70;99.90;;;;;;5053803;28;20041;-77
2023/02/03 03:50:37;;;;;;;17.02;9.15;;;-1.70;99.90;;;;;;5052524;28;20025;-77
2023/02/03 03:53:04;;;;;;;7.70;5.13;;;-1.70;99.90;;;;;;5052626;28;20052;-77
2023/02/03 03:55:33;;;;;;;8.25;5.53;;;-1.70;99.90;;;;;;5052497;28;20393;-76
2023/02/03 03:58:09;;;;;;;8.00;4.70;;;-1.80;99.90;;;;;;5032346;28;20173;-77
2023/02/03 04:00:37;;;;;;;11.02;6.05;;;-1.80;99.90;;;;;;5049389;28;20052;-77
2023/02/03 04:03:37;;;;;;;9.15;5.00;;;-1.70;99.90;;;;;;5053478;28;20032;-77
2023/02/03 04:06:03;;;;;;;7.95;4.32;;;-1.80;99.90;;;;;;5045226;28;20059;-77
2023/02/03 04:08:29;;;;;;;7.68;5.43;;;-1.80;99.90;;;;;;5053475;28;20104;-77
2023/02/03 04:10:55;;;;;;;8.05;4.97;;;-1.80;99.90;;;;;;5053391;28;20120;-76
2023/02/03 04:13:20;;;;;;;7.00;4.57;;;-1.80;99.90;;;;;;5053481;28;20036;-76
2023/02/03 04:15:46;;;;;;;6.47;3.70;;;-1.80;99.90;;;;;;5052085;28;20017;-76
2023/02/03 04:18:13;;;;;;;5.20;3.55;;;-1.80;99.90;;;;;;5051681;28;20017;-77
2023/02/03 04:20:39;;;;;;;9.63;4.10;;;-1.80;99.90;;;;;;5051953;28;20021;-77
2023/02/03 04:23:05;;;;;;;6.05;3.80;;;-1.80;99.90;;;;;;5053214;28;20043;-77
2023/02/03 04:25:30;;;;;;;5.85;4.22;;;-1.80;99.90;;;;;;5053102;28;20055;-77
2023/02/03 04:27:56;;;;;;;4.55;3.28;;;-1.80;99.90;;;;;;5051722;28;20095;-77
2023/02/03 04:30:23;;;;;;;4.93;4.05;;;-1.80;99.90;;;;;;5053449;28;20128;-77
2023/02/03 04:32:48;;;;;;;9.63;6.53;;;-1.80;99.90;;;;;;5053279;28;20060;-76
2023/02/03 04:35:15;;;;;;;22.60;12.68;;;-1.80;99.90;;;;;;5053213;28;20541;-77
2023/02/03 04:37:41;;;;;;;13.13;6.38;;;-1.80;99.90;;;;;;5053314;28;20539;-76
2023/02/03 04:40:07;;;;;;;8.55;5.45;;;-1.90;99.90;;;;;;5051805;28;20026;-77
2023/02/03 04:42:39;;;;;;;10.38;5.68;;;-1.90;99.90;;;;;;5053013;28;20087;-77
2023/02/03 04:45:06;;;;;;;4.78;4.38;;;-1.90;99.90;;;;;;5053035;28;20021;-76
2023/02/03 04:47:32;;;;;;;6.22;4.22;;;-1.90;99.90;;;;;;5053026;28;20069;-76
2023/02/03 04:49:57;;;;;;;5.60;4.88;;;-1.90;99.90;;;;;;5053059;28;20060;-76
2023/02/03 04:52:23;;;;;;;8.38;7.50;;;-2.00;99.90;;;;;;5053036;28;20037;-76
2023/02/03 04:54:49;;;;;;;9.32;5.88;;;-2.00;99.90;;;;;;5051778;28;20029;-77
2023/02/03 04:57:14;;;;;;;8.77;4.80;;;-2.00;99.90;;;;;;5053024;28;20036;-76
2023/02/03 04:59:40;;;;;;;4.80;4.30;;;-2.00;99.90;;;;;;5052986;28;20021;-76
2023/02/03 05:02:07;;;;;;;6.63;4.80;;;-2.10;99.90;;;;;;5052943;28;20035;-77
2023/02/03 05:04:33;;;;;;;6.85;4.97;;;-2.10;99.90;;;;;;5052945;28;20017;-77
2023/02/03 05:06:58;;;;;;;5.47;4.18;;;-2.10;99.90;;;;;;5052921;28;20044;-77
2023/02/03 05:09:24;;;;;;;7.45;6.00;;;-2.10;99.90;;;;;;5052933;28;20099;-77
2023/02/03 05:11:50;;;;;;;8.40;5.13;;;-2.10;99.90;;;;;;5051603;28;20171;-77
2023/02/03 05:14:15;;;;;;;6.47;4.43;;;-2.10;99.90;;;;;;5051534;28;20055;-77
2023/02/03 05:16:41;;;;;;;5.25;3.45;;;-2.10;99.90;;;;;;5052814;28;20593;-77
2023/02/03 05:19:07;;;;;;;4.80;4.40;;;-2.10;99.90;;;;;;5052680;28;20367;-76
2023/02/03 05:21:33;;;;;;;5.47;4.30;;;-2.20;99.90;;;;;;5052799;28;20079;-77
2023/02/03 05:23:59;;;;;;;5.30;3.95;;;-2.10;99.90;;;;;;5052706;28;20017;-77
2023/02/03 05:26:25;;;;;;;22.77;15.50;;;-2.10;99.90;;;;;;5052509;28;20052;-77
2023/02/03 05:28:50;;;;;;;21.77;12.75;;;-2.10;99.90;;;;;;5052575;28;20073;-76
2023/02/03 05:31:16;;;;;;;8.68;5.53;;;-2.10;99.90;;;;;;5055348;28;20024;-78
2023/02/03 05:33:42;;;;;;;10.68;4.25;;;-2.10;99.90;;;;;;5056462;28;20386;-77
2023/02/03 05:36:08;;;;;;;7.72;3.83;;;-2.10;99.90;;;;;;5056211;28;20437;-77
2023/02/03 05:38:33;;;;;;;6.53;5.18;;;-2.10;99.90;;;;;;5056230;28;20014;-77
2023/02/03 05:43:43;;;;;;;20.27;10.55;;;-2.10;99.90;;;;;;5056457;28;20414;-76
2023/02/03 05:46:09;;;;;;;14.40;8.23;;;-2.10;99.90;;;;;;5054770;28;20021;-76
2023/02/03 05:48:34;;;;;;;15.63;7.20;;;-2.10;99.90;;;;;;5075179;28;20033;-77
2023/02/03 05:51:00;;;;;;;9.57;6.40;;;-2.10;99.90;;;;;;5074804;28;20438;-77
2023/02/03 05:53:26;;;;;;;12.10;6.82;;;-2.10;99.90;;;;;;5074490;28;20024;-77
2023/02/03 05:55:52;;;;;;;14.55;8.02;;;-2.10;99.90;;;;;;5075993;28;20060;-77
2023/02/03 05:58:17;;;;;;;18.00;10.25;;;-2.10;99.90;;;;;;5075666;28;20020;-77
2023/02/03 06:00:43;;;;;;;19.30;12.57;;;-2.00;99.90;;;;;;5076021;28;20029;-77
2023/02/03 06:03:08;;;;;;;11.88;6.85;;;-2.00;99.90;;;;;;5075433;28;20021;-77
2023/02/03 06:05:36;;;;;;;10.10;6.05;;;-2.00;99.90;;;;;;5075637;28;20036;-77
2023/02/03 06:08:02;;;;;;;9.05;5.95;;;-2.00;99.90;;;;;;5074088;28;20033;-77
2023/02/03 06:10:27;;;;;;;9.55;7.95;;;-2.00;99.90;;;;;;5075701;28;20398;-77
2023/02/03 06:12:53;;;;;;;11.05;7.07;;;-2.10;99.90;;;;;;5075367;28;20031;-77
2023/02/03 06:15:19;;;;;;;13.20;6.53;;;-2.00;99.90;;;;;;5075552;28;20067;-77
2023/02/03 06:17:46;;;;;;;11.02;5.45;;;-2.00;99.90;;;;;;5075266;28;20029;-77
2023/02/03 06:20:14;;;;;;;7.97;5.82;;;-2.00;99.90;;;;;;5074206;28;20033;-77
2023/02/03 06:22:39;;;;;;;10.15;6.63;;;-2.10;99.90;;;;;;5074249;28;20016;-77
2023/02/03 06:25:05;;;;;;;13.88;9.38;;;-2.10;99.90;;;;;;5075257;28;20025;-77
2023/02/03 06:27:31;;;;;;;12.52;8.02;;;-2.10;99.90;;;;;;5074710;28;20409;-77
2023/02/03 06:29:56;;;;;;;9.65;6.72;;;-2.10;99.90;;;;;;5073868;28;20020;-77
2023/02/03 06:32:22;;;;;;;10.00;6.32;;;-2.10;99.90;;;;;;5074918;28;20028;-77
2023/02/03 06:34:48;;;;;;;10.68;7.40;;;-2.20;99.90;;;;;;5075192;28;20023;-77
2023/02/03 06:37:14;;;;;;;13.15;8.70;;;-2.10;99.90;;;;;;5053594;28;20485;-77
2023/02/03 06:39:39;;;;;;;20.70;9.52;;;-2.10;99.90;;;;;;5044778;28;20033;-77
2023/02/03 06:42:05;;;;;;;12.63;6.57;;;-2.10;99.90;;;;;;5048076;28;20032;-77
2023/02/03 06:44:31;;;;;;;12.75;7.70;;;-2.10;99.90;;;;;;5054873;28;20021;-77
2023/02/03 06:46:57;;;;;;;12.73;9.57;;;-2.10;99.90;;;;;;5054027;28;20029;-77
2023/02/03 06:49:23;;;;;;;10.75;7.20;;;-2.10;99.90;;;;;;5043564;28;20021;-76
2023/02/03 06:51:49;;;;;;;12.73;7.00;;;-2.10;99.90;;;;;;5047520;28;20018;-78
2023/02/03 06:54:14;;;;;;;14.50;8.50;;;-2.00;99.90;;;;;;5053510;28;20033;-77
2023/02/03 06:56:40;;;;;;;18.70;11.45;;;-2.00;99.90;;;;;;5054741;28;20021;-76
2023/02/03 06:59:07;;;;;;;13.02;8.60;;;-2.00;99.90;;;;;;5053412;28;20025;-77
2023/02/03 07:01:33;;;;;;;13.73;8.00;;;-2.00;99.90;;;;;;5053569;28;20028;-77
2023/02/03 07:03:58;;;;;;;12.00;8.10;;;-1.90;99.90;;;;;;5053306;28;20037;-77
2023/02/03 07:06:32;;;;;;;15.23;9.68;;;-1.90;99.90;;;;;;5054578;28;20017;-77
2023/02/03 07:08:59;;;;;;;13.15;7.72;;;-1.90;99.90;;;;;;5046648;28;20033;-77
2023/02/03 07:11:25;;;;;;;13.38;8.05;;;-1.90;99.90;;;;;;5044536;28;20100;-78
2023/02/03 07:13:51;;;;;;;15.35;9.25;;;-1.80;99.90;;;;;;5039723;28;20368;-76
2023/02/03 07:16:17;;;;;;;13.07;9.40;;;-1.80;99.90;;;;;;5033077;28;20117;-76
2023/02/03 07:18:43;;;;;;;19.90;10.40;;;-1.80;99.90;;;;;;5046433;28;20116;-76
2023/02/03 07:21:08;;;;;;;14.02;7.75;;;-1.80;99.90;;;;;;5054274;28;20102;-77
2023/02/03 07:23:34;;;;;;;15.90;9.00;;;-1.70;99.90;;;;;;5053942;28;20553;-77
2023/02/03 07:26:03;;;;;;;13.63;9.05;;;-1.70;99.90;;;;;;5052236;28;20032;-77
2023/02/03 07:28:29;;;;;;;16.67;10.15;;;-1.70;99.90;;;;;;5043960;28;20478;-77
2023/02/03 07:30:55;;;;;;;16.13;10.25;;;-1.70;99.90;;;;;;5049889;28;20021;-77
2023/02/03 07:33:21;;;;;;;15.32;9.55;;;-1.70;99.90;;;;;;5052975;28;20036;-77
2023/02/03 07:35:53;;;;;;;17.77;10.05;;;-1.60;99.90;;;;;;5049328;28;20100;-76
2023/02/03 07:38:19;;;;;;;13.68;9.13;;;-1.60;99.90;;;;;;5044782;28;20078;-77
2023/02/03 07:40:45;;;;;;;18.60;9.82;;;-1.60;99.90;;;;;;5041785;28;20022;-77
2023/02/03 07:43:10;;;;;;;17.70;10.32;;;-1.60;99.90;;;;;;5044482;28;20112;-77
2023/02/03 07:45:36;;;;;;;17.15;9.70;;;-1.50;99.90;;;;;;5053552;28;20025;-76
2023/02/03 07:48:02;;;;;;;15.90;9.73;;;-1.50;99.90;;;;;;5059937;28;20502;-78
2023/02/03 07:50:27;;;;;;;14.70;8.40;;;-1.40;99.90;;;;;;5074422;28;20099;-78
2023/02/03 07:52:54;;;;;;;15.50;10.13;;;-1.40;99.90;;;;;;5071368;28;20020;-78
2023/02/03 07:55:20;;;;;;;16.17;8.98;;;-1.30;99.90;;;;;;5072239;28;20063;-76
2023/02/03 07:57:46;;;;;;;14.63;8.98;;;-1.30;99.90;;;;;;5040819;28;20021;-78
2023/02/03 08:00:14;;;;;;;14.27;7.88;;;-1.20;99.90;;;;;;5052906;28;20025;-78
2023/02/03 08:02:41;;;;;;;17.23;9.13;;;-1.20;99.90;;;;;;5053475;28;20028;-77
2023/02/03 08:05:07;;;;;;;14.25;9.68;;;-1.20;99.90;;;;;;5053448;28;20045;-77
2023/02/03 08:07:32;;;;;;;16.38;8.30;;;-1.10;99.90;;;;;;5053082;28;20087;-76
2023/02/03 08:09:58;;;;;;;11.98;9.00;;;-1.10;99.90;;;;;;5051939;28;20013;-77
2023/02/03 08:12:24;;;;;;;14.73;8.88;;;-1.10;99.90;;;;;;5053116;28;20386;-78
2023/02/03 08:14:49;;;;;;;17.08;9.38;;;-1.10;99.90;;;;;;5053120;28;20025;-78
2023/02/03 08:17:15;;;;;;;16.88;8.70;;;-1.00;99.90;;;;;;5052515;28;20029;-77
2023/02/03 08:19:40;;;;;;;20.20;10.45;;;-1.00;99.90;;;;;;5053160;28;20025;-77
2023/02/03 08:22:06;;;;;;;20.33;10.45;;;-1.00;99.90;;;;;;5046096;28;20029;-77
2023/02/03 08:24:32;;;;;;;15.88;8.30;;;-1.00;99.90;;;;;;5037056;28;20029;-77
2023/02/03 08:26:58;;;;;;;14.38;8.63;;;-0.90;99.90;;;;;;5032068;28;20406;-76
2023/02/03 08:29:24;;;;;;;14.88;9.10;;;-0.90;99.90;;;;;;5047011;28;20039;-77
2023/02/03 08:31:49;;;;;;;16.38;8.50;;;-0.90;99.90;;;;;;5043873;28;20021;-77
2023/02/03 08:34:15;;;;;;;16.38;8.98;;;-0.80;99.90;;;;;;5048392;28;20029;-78
2023/02/03 08:36:42;;;;;;;16.10;7.80;;;-0.80;99.90;;;;;;5050445;28;20093;-77
2023/02/03 08:39:08;;;;;;;13.70;8.02;;;-0.60;99.90;;;;;;5049496;28;20037;-77
2023/02/03 08:41:34;;;;;;;13.55;8.75;;;-0.60;99.90;;;;;;5051151;28;20132;-80
2023/02/03 08:44:00;;;;;;;13.70;7.47;;;-0.50;99.90;;;;;;5047773;28;20029;-80
2023/02/03 08:46:25;;;;;;;15.38;7.68;;;-0.50;99.90;;;;;;5048239;28;20048;-80
2023/02/03 08:48:55;;;;;;;18.17;8.05;;;-0.50;99.90;;;;;;5048632;28;20021;-77
2023/02/03 08:51:20;;;;;;;11.93;7.30;;;-0.40;99.90;;;;;;5046755;28;20042;-77
2023/02/03 08:53:46;;;;;;;11.77;7.05;;;-0.30;99.90;;;;;;5047498;28;20167;-78
2023/02/03 08:56:12;;;;;;;19.75;9.18;;;-0.30;99.90;;;;;;5045177;28;20025;-80
2023/02/03 08:58:38;;;;;;;13.68;7.70;;;-0.20;99.90;;;;;;5043492;28;20041;-78
2023/02/03 09:01:09;;;;;;;13.50;7.82;;;-0.10;99.90;;;;;;5044775;28;20067;-81
2023/02/03 09:03:36;;;;;;;21.25;11.07;;;-0.10;97.70;;;;;;5045940;28;20006;-79
2023/02/03 09:06:02;;;;;;;14.35;8.35;;;-0.10;97.00;;;;;;5052109;28;20029;-78
2023/02/03 09:08:28;;;;;;;17.85;9.98;;;0.00;96.20;;;;;;5050965;28;20025;-77
2023/02/03 09:10:54;;;;;;;162.40;62.92;;;0.00;95.90;;;;;;5053681;28;20371;-80
2023/02/03 09:13:20;;;;;;;88.53;32.90;;;0.00;95.20;;;;;;5055556;28;20425;-77
2023/02/03 09:15:45;;;;;;;260.55;90.72;;;0.00;94.50;;;;;;5055357;28;20036;-78
2023/02/03 09:18:11;;;;;;;252.48;85.03;;;0.10;94.60;;;;;;5055409;28;20062;-81
2023/02/03 09:20:37;;;;;;;212.30;75.50;;;0.10;95.30;;;;;;5056461;28;20024;-81
2023/02/03 09:23:02;;;;;;;110.47;37.53;;;0.10;95.00;;;;;;5055333;28;20111;-77
2023/02/03 09:25:28;;;;;;;227.25;79.20;;;0.10;95.00;;;;;;5055073;28;20025;-81
2023/02/03 09:27:53;;;;;;;163.70;50.92;;;0.00;94.70;;;;;;5055927;28;20060;-81
2023/02/03 09:30:19;;;;;;;102.10;32.85;;;0.00;94.40;;;;;;5055339;28;20390;-77
2023/02/03 09:32:47;;;;;;;126.78;47.08;;;0.10;95.20;;;;;;5056494;28;20025;-81
2023/02/03 09:35:14;;;;;;;262.85;93.05;;;0.00;95.60;;;;;;5036289;28;20025;-78
2023/02/03 09:37:39;;;;;;;108.25;33.75;;;0.10;96.90;;;;;;5036255;28;20050;-80
2023/02/03 09:40:05;;;;;;;43.17;15.60;;;0.10;98.70;;;;;;5055385;28;20021;-77
2023/02/03 09:42:51;;;;;;;60.42;24.55;;;0.20;99.90;;;;;;5055010;28;20450;-80
2023/02/03 09:45:25;;;;;;;70.53;28.33;;;0.20;99.90;;;;;;5054879;28;20036;-80
2023/02/03 09:47:54;;;;;;;65.82;24.17;;;0.40;99.90;;;;;;5056009;28;20025;-80
2023/02/03 09:50:23;;;;;;;17.63;10.07;;;0.60;99.90;;;;;;5036205;28;20132;-81
2023/02/03 09:52:50;;;;;;;39.60;16.63;;;0.60;99.90;;;;;;5034917;28;20044;-78
2023/02/03 09:55:41;;;;;;;49.55;22.88;;;0.70;99.90;;;;;;5055610;28;20446;-80
2023/02/03 09:58:19;;;;;;;90.85;38.15;;;0.70;99.90;;;;;;5054611;28;20021;-77
2023/02/03 10:01:04;;;;;;;65.10;28.05;;;0.80;99.90;;;;;;5054648;28;20032;-81
2023/02/03 10:03:51;;;;;;;65.90;24.63;;;0.60;99.90;;;;;;5054611;28;20021;-78
2023/02/03 10:06:31;;;;;;;27.75;12.80;;;0.70;99.90;;;;;;5055805;28;20448;-78
2023/02/03 10:09:23;;;;;;;34.05;13.35;;;0.60;99.90;;;;;;5054299;28;20098;-81
2023/02/03 10:12:07;;;;;;;18.67;11.73;;;0.50;99.90;;;;;;5054409;28;20048;-78
2023/02/03 10:14:57;;;;;;;22.05;10.68;;;0.50;99.90;;;;;;5054441;28;20086;-77
2023/02/03 10:17:42;;;;;;;16.38;9.68;;;0.50;99.90;;;;;;5053796;28;20128;-81
2023/02/03 10:20:07;;;;;;;18.92;10.07;;;0.50;99.90;;;;;;5055489;28;20100;-81
2023/02/03 10:22:42;;;;;;;46.25;14.93;;;0.60;99.90;;;;;;5055481;28;20546;-78
2023/02/03 10:25:13;;;;;;;23.83;10.68;;;0.60;99.90;;;;;;5054214;28;20067;-81
2023/02/03 10:27:40;;;;;;;17.65;7.78;;;0.60;99.90;;;;;;5054846;28;20049;-81
2023/02/03 10:30:19;;;;;;;14.02;7.63;;;0.60;99.90;;;;;;5053949;28;20029;-77
2023/02/03 10:32:44;;;;;;;14.77;9.07;;;0.60;99.90;;;;;;5055320;28;20032;-78
2023/02/03 10:35:12;;;;;;;20.95;9.98;;;0.60;99.90;;;;;;5055418;28;20100;-81
2023/02/03 10:37:50;;;;;;;20.35;10.65;;;0.70;99.90;;;;;;5055352;28;20025;-81
2023/02/03 10:40:16;;;;;;;15.57;9.23;;;0.60;99.90;;;;;;5054013;28;20025;-77
2023/02/03 10:45:37;;;;;;;24.92;16.02;;;0.70;99.90;;;;;;5055556;28;20040;-81
2023/02/03 10:48:06;;;;;;;19.15;10.52;;;0.80;99.90;;;;;;5053873;28;20043;-78
2023/02/03 10:50:31;;;;;;;15.57;10.43;;;0.70;99.90;;;;;;5055181;28;20394;-82
2023/02/03 10:53:17;;;;;;;18.13;8.63;;;0.70;99.90;;;;;;5053757;28;20043;-77
2023/02/03 10:55:45;;;;;;;17.75;9.95;;;0.60;99.90;;;;;;5063409;28;20124;-78
2023/02/03 10:58:18;;;;;;;15.70;8.57;;;0.60;99.90;;;;;;5074910;28;20044;-81
2023/02/03 11:00:44;;;;;;;10.98;7.35;;;0.70;99.90;;;;;;5074686;28;20081;-81
2023/02/03 11:03:09;;;;;;;12.30;8.02;;;0.60;99.90;;;;;;5073563;28;20498;-78
2023/02/03 11:05:35;;;;;;;15.57;7.13;;;0.50;99.90;;;;;;5073327;28;20060;-81
2023/02/03 11:08:01;;;;;;;19.75;11.13;;;0.50;99.90;;;;;;5074756;28;20111;-81
2023/02/03 11:10:34;;;;;;;25.75;15.73;;;0.50;99.90;;;;;;5073149;28;20029;-81
2023/02/03 11:13:24;;;;;;;16.70;9.95;;;0.50;99.90;;;;;;5073108;28;20163;-77
2023/02/03 11:16:14;;;;;;;14.32;8.35;;;0.50;99.90;;;;;;5073364;28;20131;-82
2023/02/03 11:18:59;;;;;;;13.88;8.70;;;0.50;99.90;;;;;;5074358;28;20085;-78
2023/02/03 11:21:32;;;;;;;18.40;11.43;;;0.40;99.90;;;;;;5073259;28;20024;-77
2023/02/03 11:24:04;;;;;;;;;;;0.40;99.90;;;;;;5073369;28;20048;-78
2023/02/03 11:26:38;;;;;;;19.77;9.50;;;0.30;99.90;;;;;;5072862;28;19922;-78
2023/02/03 11:29:07;;;;;;;11.00;8.15;;;0.30;99.90;;;;;;5073003;28;20094;-78
2023/02/03 11:31:34;;;;;;;11.93;7.13;;;0.30;99.90;;;;;;5073366;28;20481;-81
2023/02/03 11:34:06;;;;;;;17.88;7.65;;;0.30;99.90;;;;;;5073873;28;20029;-78
2023/02/03 11:36:34;;;;;;;10.13;6.22;;;0.30;99.90;;;;;;5073016;28;20052;-81
2023/02/03 11:39:24;;;;;;;21.13;10.05;;;0.30;99.90;;;;;;5074023;28;20478;-81
2023/02/03 11:41:49;;;;;;;13.98;8.20;;;0.30;99.90;;;;;;5072953;28;20032;-82
2023/02/03 11:44:25;;;;;;;11.85;6.15;;;0.20;99.90;;;;;;5072478;28;20397;-81
2023/02/03 11:47:01;;;;;;;9.55;6.97;;;0.30;99.90;;;;;;5072968;28;20039;-78
2023/02/03 11:49:44;;;;;;;11.05;8.00;;;0.40;99.90;;;;;;5072476;28;20021;-81
2023/02/03 11:52:24;;;;;;;11.25;7.07;;;0.40;99.90;;;;;;5074168;28;20031;-78
2023/02/03 11:55:10;;;;;;;9.07;5.75;;;0.40;99.90;;;;;;5072467;28;20489;-78
2023/02/03 11:58:22;;;;;;;13.95;7.90;;;0.40;99.90;;;;;;5072454;28;20060;-81
2023/02/03 12:01:09;;;;;;;10.48;6.22;;;0.40;99.90;;;;;;5073905;28;20024;-81
2023/02/03 12:04:11;;;;;;;12.20;7.43;;;0.40;99.90;;;;;;5072331;28;20040;-82
2023/02/03 12:07:04;;;;;;;7.65;5.57;;;0.40;99.90;;;;;;5072515;28;20401;-82
2023/02/03 12:09:49;;;;;;;7.68;5.35;;;0.40;99.90;;;;;;5072215;28;20041;-82
2023/02/03 12:12:15;;;;;;;9.57;7.13;;;0.30;99.90;;;;;;5073725;28;20381;-81
2023/02/03 12:15:12;;;;;;;8.10;5.63;;;0.40;99.90;;;;;;5073388;28;20040;-78
2023/02/03 12:18:30;;;;;;;9.45;5.90;;;0.30;99.90;;;;;;5073524;28;20024;-81
2023/02/03 12:21:10;;;;;;;9.68;6.32;;;0.30;99.90;;;;;;5063735;28;20497;-78
2023/02/03 12:23:47;;;;;;;9.45;6.25;;;0.30;99.90;;;;;;5072113;28;20435;-82
2023/02/03 12:26:25;;;;;;;12.95;9.50;;;0.30;99.90;;;;;;5071950;28;20044;-82
2023/02/03 12:29:08;;;;;;;12.50;6.93;;;0.30;99.90;;;;;;5073104;28;20049;-81
2023/02/03 12:31:36;;;;;;;11.80;6.15;;;0.30;99.90;;;;;;5072227;28;20543;-81
2023/02/03 12:34:17;;;;;;;10.00;5.55;;;0.20;99.90;;;;;;5071836;28;20025;-79
2023/02/03 12:36:54;;;;;;;18.58;7.07;;;0.20;99.90;;;;;;5073939;28;20031;-78
2023/02/03 12:39:28;;;;;;;12.20;7.35;;;0.20;99.90;;;;;;5072773;28;20032;-82
2023/02/03 12:42:04;;;;;;;11.88;7.03;;;0.10;99.90;;;;;;5073439;28;20020;-79
2023/02/03 12:44:42;;;;;;;10.75;6.53;;;0.20;99.90;;;;;;5073146;28;20074;-78
2023/02/03 12:47:21;;;;;;;12.73;10.02;;;0.10;99.90;;;;;;5071948;28;20040;-80
2023/02/03 12:49:56;;;;;;;12.35;7.60;;;0.10;99.90;;;;;;5071829;28;20017;-81
2023/02/03 12:52:37;;;;;;;13.07;7.68;;;0.10;99.90;;;;;;5072032;28;20023;-81
2023/02/03 12:55:33;;;;;;;11.15;7.95;;;0.10;99.90;;;;;;5071898;28;20481;-78
2023/02/03 12:58:20;;;;;;;12.13;7.93;;;0.10;99.90;;;;;;5071651;28;20103;-81
2023/02/03 13:01:09;;;;;;;14.02;8.45;;;0.10;99.90;;;;;;5073322;28;20049;-81
2023/02/03 13:04:06;;;;;;;10.30;7.07;;;0.20;99.90;;;;;;5071626;28;20029;-81
2023/02/03 13:07:04;;;;;;;10.68;6.72;;;0.20;99.90;;;;;;5071944;28;20016;-78